Time;durP1;ratioP1;P1;durP2;ratioP2;P2;SDS_P1;SDS_P2;PMS_P1;PMS_P2;Temp;Humidity;BMP_temperature;BMP_pressure;BME280_temperature;BME280_humidity;BME280_pressure;Samples;Min_cycle;Max_cycle;Signal;HPM_P1;HPM_P2
2023/07/03 00:00:46;;;;;;;5.22;1.90;;;22.20;52.60;;;;;;4938968;28;20420;-75
2023/07/03 00:03:13;;;;;;;3.33;1.80;;;22.20;52.60;;;;;;4956035;28;20388;-75
2023/07/03 00:05:47;;;;;;;4.35;2.33;;;22.20;52.70;;;;;;4938850;29;20130;-76
2023/07/03 00:08:14;;;;;;;3.78;2.22;;;22.20;52.70;;;;;;4956275;28;20039;-75
2023/07/03 00:10:40;;;;;;;4.07;2.17;;;22.20;52.70;;;;;;4954971;29;20035;-75
2023/07/03 00:13:07;;;;;;;4.25;1.75;;;22.20;52.70;;;;;;4939150;29;20531;-75
2023/07/03 00:15:33;;;;;;;4.47;2.00;;;22.20;52.80;;;;;;4939445;29;20368;-74
2023/07/03 00:17:58;;;;;;;5.00;2.13;;;22.10;52.70;;;;;;4938404;29;20035;-75
2023/07/03 00:20:27;;;;;;;3.85;1.90;;;22.10;52.80;;;;;;4954082;28;20043;-75
2023/07/03 00:22:54;;;;;;;3.10;1.80;;;22.10;52.80;;;;;;4954916;29;20042;-76
2023/07/03 00:25:20;;;;;;;3.60;1.95;;;22.10;52.80;;;;;;4955485;28;20038;-75
2023/07/03 00:27:46;;;;;;;4.57;2.00;;;22.10;52.90;;;;;;4938809;29;20472;-74
2023/07/03 00:30:13;;;;;;;4.65;2.00;;;22.00;52.80;;;;;;4939139;28;20035;-74
2023/07/03 00:32:39;;;;;;;4.35;1.92;;;22.00;52.90;;;;;;4955767;28;20059;-75
2023/07/03 00:35:06;;;;;;;3.67;1.83;;;22.00;52.90;;;;;;4938474;29;20118;-75
2023/07/03 00:37:33;;;;;;;2.83;1.63;;;22.00;52.90;;;;;;4955633;28;20036;-77
2023/07/03 00:39:59;;;;;;;5.28;2.20;;;22.00;52.90;;;;;;4954594;28;20063;-76
2023/07/03 00:42:29;;;;;;;3.13;1.70;;;22.00;53.00;;;;;;4955480;28;20043;-76
2023/07/03 00:44:55;;;;;;;4.57;2.00;;;22.00;53.00;;;;;;4954471;29;20043;-77
2023/07/03 00:47:22;;;;;;;4.03;2.13;;;22.00;53.00;;;;;;4938263;29;20473;-77
2023/07/03 00:49:48;;;;;;;3.85;1.90;;;21.90;53.00;;;;;;4938375;29;20062;-77
2023/07/03 00:52:14;;;;;;;4.57;2.03;;;21.90;53.00;;;;;;4953807;29;20038;-77
2023/07/03 00:54:40;;;;;;;3.45;2.08;;;21.90;53.00;;;;;;4954790;29;20039;-74
2023/07/03 00:57:13;;;;;;;3.17;1.80;;;21.90;53.00;;;;;;4938460;29;20492;-77
2023/07/03 00:59:40;;;;;;;5.28;1.85;;;21.90;53.10;;;;;;4954389;29;20066;-76
2023/07/03 01:02:15;;;;;;;4.82;1.88;;;21.90;53.10;;;;;;4938913;29;20031;-76
2023/07/03 01:04:56;;;;;;;3.78;1.98;;;21.80;53.10;;;;;;4955277;28;20066;-77
2023/07/03 01:07:27;;;;;;;4.18;1.70;;;21.80;53.10;;;;;;4955007;28;20118;-77
2023/07/03 01:10:23;;;;;;;4.22;2.00;;;21.80;53.20;;;;;;4938359;29;20055;-77
2023/07/03 01:12:52;;;;;;;4.55;1.60;;;21.70;53.10;;;;;;4947404;28;20043;-76
2023/07/03 01:15:23;;;;;;;3.75;1.67;;;21.70;53.10;;;;;;4954855;28;20069;-76
2023/07/03 01:17:52;;;;;;;3.15;1.58;;;21.70;53.20;;;;;;4954676;29;20034;-76
2023/07/03 01:20:20;;;;;;;4.88;1.85;;;21.70;53.20;;;;;;4953685;29;20451;-77
2023/07/03 01:23:21;;;;;;;3.58;2.00;;;21.70;53.20;;;;;;4955098;28;20110;-76
2023/07/03 01:25:48;;;;;;;3.83;1.83;;;21.70;53.30;;;;;;4950700;28;20051;-76
2023/07/03 01:28:18;;;;;;;3.35;1.63;;;21.70;53.20;;;;;;4953836;29;20373;-77
2023/07/03 01:30:44;;;;;;;3.65;2.00;;;21.60;53.30;;;;;;4955436;28;20057;-77
2023/07/03 01:33:17;;;;;;;3.28;1.75;;;21.60;53.20;;;;;;4958757;28;20015;-76
2023/07/03 01:35:48;;;;;;;2.90;1.50;;;21.50;53.20;;;;;;4959601;28;20135;-76
2023/07/03 01:38:16;;;;;;;3.25;1.80;;;21.60;53.30;;;;;;4941562;29;20503;-77
2023/07/03 01:40:42;;;;;;;4.35;2.00;;;21.60;53.30;;;;;;4957592;29;20043;-76
2023/07/03 01:43:10;;;;;;;4.20;1.75;;;21.50;53.30;;;;;;4957245;29;20062;-77
2023/07/03 01:45:44;;;;;;;3.58;1.70;;;21.50;53.40;;;;;;4957337;28;20071;-77
2023/07/03 01:48:10;;;;;;;3.58;1.70;;;21.50;53.40;;;;;;4958935;28;20042;-77
2023/07/03 01:50:38;;;;;;;3.20;1.65;;;21.40;53.30;;;;;;4957043;29;20039;-76
2023/07/03 01:53:26;;;;;;;3.42;1.73;;;21.50;53.40;;;;;;4958240;28;20082;-76
2023/07/03 01:55:58;;;;;;;2.50;1.70;;;21.50;53.50;;;;;;4957301;29;20062;-77
2023/07/03 01:58:47;;;;;;;3.13;1.90;;;21.40;53.40;;;;;;4957893;29;20469;-77
2023/07/03 02:01:41;;;;;;;3.25;1.65;;;21.40;53.50;;;;;;4957390;28;20033;-77
2023/07/03 02:04:37;;;;;;;3.95;2.10;;;21.40;53.50;;;;;;4957041;29;20481;-74
2023/07/03 02:07:04;;;;;;;3.83;1.70;;;21.40;53.50;;;;;;4958531;29;20167;-77
2023/07/03 02:09:31;;;;;;;5.20;1.88;;;21.30;53.40;;;;;;4941312;28;20498;-76
2023/07/03 02:11:59;;;;;;;5.30;1.85;;;21.30;53.50;;;;;;4956755;29;20019;-76
2023/07/03 02:14:26;;;;;;;3.13;1.80;;;21.30;53.60;;;;;;4957091;28;20047;-76
2023/07/03 02:16:53;;;;;;;2.90;1.75;;;21.30;53.60;;;;;;4941096;29;20373;-77
2023/07/03 02:19:31;;;;;;;3.38;1.80;;;21.30;53.60;;;;;;4940922;29;20039;-77
2023/07/03 02:21:57;;;;;;;4.03;2.00;;;21.20;53.70;;;;;;4925990;29;20042;-77
2023/07/03 02:24:24;;;;;;;4.82;1.92;;;21.20;53.70;;;;;;4956584;29;20373;-77
2023/07/03 02:26:51;;;;;;;4.72;1.88;;;21.20;53.70;;;;;;4956665;29;20042;-76
2023/07/03 02:29:17;;;;;;;3.30;1.90;;;21.10;53.70;;;;;;4956514;29;20067;-77
2023/07/03 02:31:45;;;;;;;3.97;1.90;;;21.10;53.80;;;;;;4956587;29;20373;-78
2023/07/03 02:34:10;;;;;;;4.65;2.00;;;21.10;53.80;;;;;;4956673;29;20106;-77
2023/07/03 02:36:39;;;;;;;3.63;2.05;;;21.10;53.80;;;;;;4957290;28;20038;-77
2023/07/03 02:39:07;;;;;;;4.30;1.88;;;21.10;53.80;;;;;;4956763;29;20055;-77
2023/07/03 02:41:34;;;;;;;3.22;1.85;;;21.00;53.80;;;;;;4940697;29;20041;-77
2023/07/03 02:44:00;;;;;;;3.50;1.80;;;21.00;53.90;;;;;;4939399;29;20471;-77
2023/07/03 02:46:29;;;;;;;3.22;1.80;;;21.00;53.90;;;;;;4957131;29;20039;-76
2023/07/03 02:48:55;;;;;;;3.38;1.73;;;21.00;53.90;;;;;;4940424;29;20066;-76
2023/07/03 02:51:22;;;;;;;2.55;1.75;;;21.00;53.90;;;;;;4956515;28;20031;-76
2023/07/03 02:53:50;;;;;;;4.30;2.13;;;21.00;54.00;;;;;;4941252;28;20031;-77
2023/07/03 02:56:16;;;;;;;3.33;1.77;;;20.90;53.90;;;;;;4941070;29;20035;-76
2023/07/03 02:58:44;;;;;;;2.58;1.50;;;20.90;54.00;;;;;;4940563;29;20384;-76
2023/07/03 03:01:14;;;;;;;3.35;1.77;;;20.90;54.00;;;;;;4940830;29;20028;-76
2023/07/03 03:03:41;;;;;;;3.70;1.60;;;20.90;54.10;;;;;;4940125;29;20031;-77
2023/07/03 03:06:07;;;;;;;3.50;1.88;;;20.90;54.10;;;;;;4940320;29;20035;-77
2023/07/03 03:08:33;;;;;;;4.43;1.80;;;20.80;54.10;;;;;;4956671;29;20039;-77
2023/07/03 03:11:00;;;;;;;3.03;1.73;;;20.80;54.20;;;;;;4939745;29;20041;-76
2023/07/03 03:13:25;;;;;;;4.50;1.83;;;20.80;54.20;;;;;;4940102;29;20390;-76
2023/07/03 03:15:54;;;;;;;2.92;1.70;;;20.80;54.20;;;;;;4940446;29;20480;-77
2023/07/03 03:18:21;;;;;;;3.38;1.88;;;20.80;54.30;;;;;;4939698;29;20032;-77
2023/07/03 03:20:47;;;;;;;3.05;1.58;;;20.70;54.20;;;;;;4939922;29;20065;-77
2023/07/03 03:23:13;;;;;;;4.28;1.92;;;20.70;54.20;;;;;;4955735;28;20031;-77
2023/07/03 03:25:39;;;;;;;4.28;2.15;;;20.70;54.30;;;;;;4955272;29;20050;-76
2023/07/03 03:28:06;;;;;;;3.22;1.67;;;20.70;54.30;;;;;;4939637;28;20341;-76
2023/07/03 03:30:32;;;;;;;3.90;2.00;;;20.70;54.30;;;;;;4939880;29;20078;-77
2023/07/03 03:32:58;;;;;;;4.30;2.00;;;20.70;54.30;;;;;;4939613;29;20433;-76
2023/07/03 03:35:24;;;;;;;3.63;2.10;;;20.70;54.40;;;;;;4939580;28;20484;-76
2023/07/03 03:37:51;;;;;;;3.90;2.03;;;20.70;54.40;;;;;;4955397;29;20032;-76
2023/07/03 03:40:17;;;;;;;3.28;1.58;;;20.60;54.40;;;;;;4924313;29;20093;-77
2023/07/03 03:42:43;;;;;;;3.70;1.75;;;20.60;54.40;;;;;;4955618;28;20135;-77
2023/07/03 03:45:09;;;;;;;3.33;1.85;;;20.60;54.50;;;;;;4955185;29;20046;-78
2023/07/03 03:47:35;;;;;;;3.72;1.77;;;20.60;54.60;;;;;;4939065;29;20035;-77
2023/07/03 03:50:02;;;;;;;4.00;2.10;;;20.60;54.60;;;;;;4955075;29;20035;-77
2023/07/03 03:52:30;;;;;;;5.13;1.90;;;20.60;54.60;;;;;;4955093;28;20043;-77
2023/07/03 03:54:56;;;;;;;3.88;2.10;;;20.50;54.70;;;;;;4938923;28;20069;-77
2023/07/03 03:57:24;;;;;;;3.65;2.00;;;20.60;54.70;;;;;;4940150;29;20036;-77
2023/07/03 03:59:49;;;;;;;4.85;2.00;;;20.50;54.70;;;;;;4955055;29;20490;-77
2023/07/03 04:02:15;;;;;;;4.60;1.95;;;20.50;54.70;;;;;;4939274;29;20035;-77
2023/07/03 04:04:41;;;;;;;4.05;2.20;;;20.50;54.70;;;;;;4938724;29;20035;-76
2023/07/03 04:07:07;;;;;;;4.82;2.05;;;20.50;54.70;;;;;;4939233;29;20050;-77
2023/07/03 04:09:33;;;;;;;4.60;2.05;;;20.50;54.80;;;;;;4956038;29;20468;-77
2023/07/03 04:11:59;;;;;;;4.85;2.22;;;20.50;54.80;;;;;;4955798;28;20110;-76
2023/07/03 04:14:25;;;;;;;4.20;2.00;;;20.50;54.90;;;;;;4938825;28;20041;-77
2023/07/03 04:16:51;;;;;;;4.60;2.00;;;20.40;54.90;;;;;;4955011;29;20031;-77
2023/07/03 04:19:18;;;;;;;4.07;1.83;;;20.50;55.00;;;;;;4938773;29;20033;-77
2023/07/03 04:21:45;;;;;;;3.83;1.88;;;20.40;55.00;;;;;;4938939;29;20031;-77
2023/07/03 04:24:10;;;;;;;5.20;2.22;;;20.40;55.70;;;;;;4938636;29;20043;-77
2023/07/03 04:26:38;;;;;;;3.28;1.73;;;20.40;55.10;;;;;;4955373;29;20357;-77
2023/07/03 04:29:04;;;;;;;4.28;1.92;;;20.40;55.10;;;;;;4939114;29;20028;-77
2023/07/03 04:31:31;;;;;;;4.38;1.98;;;20.40;55.10;;;;;;4953995;29;20042;-77
2023/07/03 04:33:57;;;;;;;4.55;2.00;;;20.40;55.20;;;;;;4955263;28;20552;-77
2023/07/03 04:36:23;;;;;;;5.13;2.40;;;20.40;55.20;;;;;;4938363;29;20598;-77
2023/07/03 04:38:49;;;;;;;4.10;1.83;;;20.30;55.20;;;;;;4955271;28;20031;-76
2023/07/03 04:41:15;;;;;;;4.35;1.90;;;20.40;55.30;;;;;;4955310;28;20050;-77
2023/07/03 04:43:44;;;;;;;4.95;2.08;;;20.30;55.30;;;;;;4938040;29;20083;-77
2023/07/03 04:46:12;;;;;;;4.50;1.88;;;20.30;55.30;;;;;;4953789;29;20070;-77
2023/07/03 04:48:39;;;;;;;5.18;2.10;;;20.30;55.30;;;;;;4938059;29;20571;-76
2023/07/03 04:51:04;;;;;;;5.85;2.25;;;20.30;56.00;;;;;;4953863;29;20038;-77
2023/07/03 04:53:39;;;;;;;4.45;1.92;;;20.30;55.40;;;;;;4937937;29;20396;-78
2023/07/03 04:56:05;;;;;;;;;;;20.30;55.50;;;;;;4954308;28;20042;-77
2023/07/03 04:58:30;;;;;;;3.13;1.80;;;20.30;55.30;;;;;;4955361;28;19910;-77
2023/07/03 05:00:56;;;;;;;3.00;1.52;;;20.30;55.30;;;;;;4953871;29;20037;-77
2023/07/03 05:03:22;;;;;;;3.90;1.85;;;20.30;55.40;;;;;;4953589;29;20122;-78
2023/07/03 05:05:48;;;;;;;4.15;2.03;;;20.30;55.50;;;;;;4953456;28;20046;-77
2023/07/03 05:08:13;;;;;;;4.05;2.20;;;20.30;55.60;;;;;;4953960;29;20035;-77
2023/07/03 05:10:39;;;;;;;4.47;1.88;;;20.20;55.60;;;;;;4937935;29;20118;-78
2023/07/03 05:13:05;;;;;;;2.83;1.70;;;20.20;55.60;;;;;;4955526;28;20547;-77
2023/07/03 05:15:31;;;;;;;6.43;2.63;;;20.20;55.70;;;;;;4953898;29;20035;-77
2023/07/03 05:17:57;;;;;;;4.82;2.20;;;20.20;55.70;;;;;;4953762;29;20035;-77
2023/07/03 05:20:25;;;;;;;6.13;2.33;;;20.20;55.70;;;;;;4938614;29;20033;-80
2023/07/03 05:22:51;;;;;;;3.78;2.05;;;20.20;55.80;;;;;;4937801;28;20039;-77
2023/07/03 05:25:18;;;;;;;5.15;2.53;;;20.20;55.80;;;;;;4937482;29;20079;-77
2023/07/03 05:27:45;;;;;;;4.60;2.15;;;20.20;55.80;;;;;;4953955;28;20020;-76
2023/07/03 05:30:11;;;;;;;4.50;2.40;;;20.20;55.80;;;;;;4954692;28;20460;-77
2023/07/03 05:32:37;;;;;;;4.07;1.90;;;20.20;55.90;;;;;;4938574;28;20112;-76
2023/07/03 05:35:05;;;;;;;4.47;2.30;;;20.20;55.90;;;;;;4954265;29;20047;-76
2023/07/03 05:37:31;;;;;;;3.70;2.00;;;20.20;55.90;;;;;;4953592;28;20388;-76
2023/07/03 05:39:57;;;;;;;4.65;2.00;;;20.20;56.60;;;;;;4955140;28;20592;-76
2023/07/03 05:42:23;;;;;;;5.25;2.10;;;20.20;56.00;;;;;;4952955;29;20130;-76
2023/07/03 05:44:49;;;;;;;4.90;1.95;;;20.20;56.00;;;;;;4937617;29;20170;-75
2023/07/03 05:47:16;;;;;;;5.55;2.30;;;20.20;56.00;;;;;;4954321;29;20354;-76
2023/07/03 05:49:42;;;;;;;6.03;2.20;;;20.20;56.10;;;;;;4937872;29;20423;-77
2023/07/03 05:52:09;;;;;;;5.43;2.17;;;20.20;56.10;;;;;;4955065;28;20042;-76
2023/07/03 05:54:35;;;;;;;4.18;2.03;;;20.20;56.10;;;;;;4953740;29;20043;-77
2023/07/03 05:57:10;;;;;;;6.53;2.53;;;20.20;56.20;;;;;;4937852;29;20126;-76
2023/07/03 05:59:38;;;;;;;5.55;2.00;;;20.20;56.30;;;;;;4953929;29;20098;-75
2023/07/03 06:02:10;;;;;;;5.32;2.17;;;20.20;56.20;;;;;;4938593;29;20036;-75
2023/07/03 06:04:36;;;;;;;5.63;2.58;;;20.20;56.30;;;;;;4954409;29;20043;-75
2023/07/03 06:07:03;;;;;;;4.43;2.05;;;20.20;56.20;;;;;;4953961;29;20107;-75
2023/07/03 06:09:29;;;;;;;5.97;2.20;;;20.20;56.30;;;;;;4937945;29;20032;-75
2023/07/03 06:11:58;;;;;;;4.30;2.13;;;20.20;56.30;;;;;;4955088;28;20028;-76
2023/07/03 06:14:24;;;;;;;5.22;2.35;;;20.30;56.40;;;;;;4939135;28;20035;-75
2023/07/03 06:16:51;;;;;;;4.88;2.08;;;20.20;56.30;;;;;;4955383;28;20039;-75
2023/07/03 06:19:18;;;;;;;4.78;2.20;;;20.20;56.40;;;;;;4957252;29;20041;-75
2023/07/03 06:21:44;;;;;;;4.20;2.38;;;20.20;56.40;;;;;;4957241;28;20380;-75
2023/07/03 06:24:12;;;;;;;4.72;2.00;;;20.30;56.50;;;;;;4941157;28;20448;-75
2023/07/03 06:26:39;;;;;;;4.82;2.33;;;20.20;56.50;;;;;;4957130;28;20078;-75
2023/07/03 06:29:09;;;;;;;5.97;2.33;;;20.30;56.50;;;;;;4956723;29;20031;-75
2023/07/03 06:31:35;;;;;;;4.95;2.22;;;20.30;56.50;;;;;;4940857;29;20035;-75
2023/07/03 06:34:02;;;;;;;4.40;2.10;;;20.30;56.50;;;;;;4925279;29;20046;-76
2023/07/03 06:36:28;;;;;;;4.90;2.00;;;20.30;56.50;;;;;;4940986;28;20043;-75
2023/07/03 06:38:55;;;;;;;5.32;2.00;;;20.30;56.50;;;;;;4957091;29;20086;-76
2023/07/03 06:41:31;;;;;;;3.80;2.00;;;20.30;56.60;;;;;;4958005;28;20078;-75
2023/07/03 06:43:57;;;;;;;5.80;2.35;;;20.30;56.60;;;;;;4956550;29;20055;-76
2023/07/03 06:46:24;;;;;;;5.18;2.03;;;20.30;56.60;;;;;;4957914;28;20039;-75
2023/07/03 06:48:50;;;;;;;5.07;2.10;;;20.30;56.60;;;;;;4956886;28;20425;-75
2023/07/03 06:51:16;;;;;;;4.68;2.10;;;20.30;56.60;;;;;;4957987;28;20067;-75
2023/07/03 06:53:42;;;;;;;4.35;2.28;;;20.30;56.60;;;;;;4941620;29;20354;-75
2023/07/03 06:56:08;;;;;;;5.35;2.42;;;20.40;56.60;;;;;;4957439;28;20399;-75
2023/07/03 06:58:35;;;;;;;3.50;2.00;;;20.40;56.70;;;;;;4956413;28;20029;-75
2023/07/03 07:01:12;;;;;;;4.68;2.00;;;20.40;56.70;;;;;;4957306;28;20050;-75
2023/07/03 07:03:38;;;;;;;3.97;1.98;;;20.40;56.80;;;;;;4957292;28;20035;-76
2023/07/03 07:06:10;;;;;;;4.18;1.95;;;20.40;56.70;;;;;;4955981;29;20036;-77
2023/07/03 07:08:36;;;;;;;5.25;2.47;;;20.40;56.70;;;;;;4940915;28;20066;-75
2023/07/03 07:11:02;;;;;;;4.53;1.88;;;20.40;56.60;;;;;;4956904;29;20444;-75
2023/07/03 07:13:27;;;;;;;5.40;2.25;;;20.50;56.70;;;;;;4957004;28;20090;-77
2023/07/03 07:15:53;;;;;;;5.20;2.05;;;20.50;56.70;;;;;;4955870;29;20039;-76
2023/07/03 07:18:19;;;;;;;4.82;2.20;;;20.50;56.70;;;;;;4955943;29;20518;-76
2023/07/03 07:20:44;;;;;;;5.40;2.15;;;20.50;56.70;;;;;;4939813;29;20546;-76
2023/07/03 07:23:10;;;;;;;3.17;1.88;;;20.50;56.70;;;;;;4956905;28;20484;-76
2023/07/03 07:25:36;;;;;;;5.35;2.08;;;20.60;56.70;;;;;;4956469;29;20174;-75
2023/07/03 07:28:02;;;;;;;5.38;2.17;;;20.60;56.70;;;;;;4955596;29;20043;-74
2023/07/03 07:30:28;;;;;;;5.05;2.30;;;20.60;56.70;;;;;;4955451;28;20035;-74
2023/07/03 07:32:53;;;;;;;4.75;2.47;;;20.60;56.70;;;;;;4956673;28;20027;-74
2023/07/03 07:35:19;;;;;;;4.93;2.20;;;20.60;56.70;;;;;;4955772;29;20039;-74
2023/07/03 07:37:45;;;;;;;6.13;2.38;;;20.70;56.70;;;;;;4955477;29;20396;-74
2023/07/03 07:40:11;;;;;;;3.83;1.92;;;20.60;56.70;;;;;;4957120;29;20034;-74
2023/07/03 07:42:38;;;;;;;5.65;2.20;;;20.70;57.40;;;;;;4955213;29;20059;-74
2023/07/03 07:45:05;;;;;;;5.00;2.10;;;20.70;56.70;;;;;;4955249;29;20041;-74
2023/07/03 07:47:30;;;;;;;5.03;2.13;;;20.70;56.70;;;;;;4956396;28;20458;-74
2023/07/03 07:49:58;;;;;;;4.07;1.92;;;20.70;56.70;;;;;;4955126;29;20074;-74
2023/07/03 07:52:24;;;;;;;4.47;1.90;;;20.70;56.70;;;;;;4955181;29;20508;-74
2023/07/03 07:54:57;;;;;;;5.95;2.30;;;20.80;56.70;;;;;;4939659;29;20404;-74
2023/07/03 07:57:24;;;;;;;4.75;2.00;;;20.80;56.80;;;;;;4955512;29;20035;-74
2023/07/03 07:59:50;;;;;;;4.80;2.20;;;20.80;56.70;;;;;;4956479;28;20031;-74
2023/07/03 08:02:16;;;;;;;3.45;1.80;;;20.80;56.70;;;;;;4955040;29;20110;-74
2023/07/03 08:04:43;;;;;;;4.25;2.00;;;20.80;56.70;;;;;;4956081;28;20532;-74
2023/07/03 08:07:09;;;;;;;3.92;1.95;;;20.90;56.80;;;;;;4954954;29;20102;-74
2023/07/03 08:09:35;;;;;;;4.43;2.05;;;20.90;56.70;;;;;;4956309;28;20023;-74
2023/07/03 08:12:02;;;;;;;4.97;2.30;;;20.90;56.70;;;;;;4956062;28;20046;-74
2023/07/03 08:14:28;;;;;;;5.88;2.22;;;20.90;56.60;;;;;;4954978;28;20042;-74
2023/07/03 08:16:53;;;;;;;5.90;2.17;;;21.00;56.60;;;;;;4938922;29;20035;-74
2023/07/03 08:19:19;;;;;;;4.60;1.67;;;21.00;56.60;;;;;;4939674;29;20031;-74
2023/07/03 08:21:45;;;;;;;4.82;1.92;;;21.10;56.60;;;;;;4955828;28;20035;-74
2023/07/03 08:24:11;;;;;;;4.40;1.90;;;21.10;56.60;;;;;;4954706;29;20059;-74
2023/07/03 08:26:36;;;;;;;5.68;1.83;;;21.10;56.60;;;;;;4938858;28;20456;-74
2023/07/03 08:29:02;;;;;;;5.07;1.90;;;21.10;56.50;;;;;;4956561;28;20031;-74
2023/07/03 08:31:28;;;;;;;3.70;1.92;;;21.20;56.50;;;;;;4954546;29;20034;-74
2023/07/03 08:33:55;;;;;;;5.45;2.10;;;21.30;56.50;;;;;;4954783;29;20038;-74
2023/07/03 08:36:22;;;;;;;4.25;1.85;;;21.30;56.40;;;;;;4954484;29;20039;-74
2023/07/03 08:38:48;;;;;;;4.88;2.05;;;21.30;56.40;;;;;;4956045;28;20049;-74
2023/07/03 08:41:15;;;;;;;4.57;1.88;;;21.30;56.30;;;;;;4954010;28;20539;-74
2023/07/03 08:43:45;;;;;;;4.80;1.83;;;21.40;56.30;;;;;;4956019;28;20047;-74
2023/07/03 08:46:18;;;;;;;3.47;1.70;;;21.50;56.30;;;;;;4955589;29;20042;-74
2023/07/03 08:48:45;;;;;;;2.88;1.67;;;21.50;56.20;;;;;;4955048;29;20035;-74
2023/07/03 08:51:15;;;;;;;2.97;1.73;;;21.50;56.10;;;;;;4938398;28;20073;-74
2023/07/03 08:53:43;;;;;;;4.38;1.90;;;21.60;56.10;;;;;;4955303;28;20126;-74
2023/07/03 08:56:16;;;;;;;5.47;1.95;;;21.70;56.10;;;;;;4955301;28;20121;-74
2023/07/03 08:58:46;;;;;;;3.80;1.70;;;21.70;56.00;;;;;;4954150;29;20472;-75
2023/07/03 09:01:36;;;;;;;4.80;2.00;;;21.70;56.00;;;;;;4954229;28;20031;-74
2023/07/03 09:04:20;;;;;;;3.58;1.52;;;21.80;56.00;;;;;;4955276;28;20046;-75
2023/07/03 09:06:55;;;;;;;5.47;1.90;;;21.90;55.90;;;;;;4954311;29;20479;-75
2023/07/03 09:09:23;;;;;;;4.35;1.60;;;21.90;55.80;;;;;;4954568;29;20031;-74
2023/07/03 09:12:02;;;;;;;3.67;1.70;;;22.00;55.80;;;;;;4955572;28;20054;-74
2023/07/03 09:14:34;;;;;;;5.00;1.92;;;22.00;55.80;;;;;;4954492;29;20146;-74
2023/07/03 09:17:01;;;;;;;2.67;1.42;;;22.10;55.70;;;;;;4955440;29;20074;-74
2023/07/03 09:19:28;;;;;;;3.40;1.48;;;22.10;55.60;;;;;;4954708;29;20047;-75
2023/07/03 09:21:59;;;;;;;3.10;1.63;;;22.20;55.60;;;;;;4955300;29;20033;-74
2023/07/03 09:24:33;;;;;;;3.75;1.55;;;22.20;55.50;;;;;;4954031;28;20042;-74
2023/07/03 09:27:05;;;;;;;3.28;1.52;;;22.30;55.50;;;;;;4938393;29;20035;-74
2023/07/03 09:29:33;;;;;;;3.85;1.55;;;22.40;55.50;;;;;;4954352;29;20065;-74
2023/07/03 09:31:58;;;;;;;3.58;1.45;;;22.40;55.40;;;;;;4954240;29;20050;-74
2023/07/03 09:34:24;;;;;;;2.63;1.27;;;22.50;55.40;;;;;;4938824;29;20035;-75
2023/07/03 09:36:59;;;;;;;3.38;1.67;;;22.60;55.30;;;;;;4955706;28;20042;-75
2023/07/03 09:39:25;;;;;;;2.80;1.30;;;22.60;55.30;;;;;;4954734;29;20031;-74
2023/07/03 09:41:53;;;;;;;4.43;1.83;;;22.70;55.20;;;;;;4955109;28;20059;-74
2023/07/03 09:44:22;;;;;;;3.83;1.63;;;22.70;55.10;;;;;;4937893;29;20035;-75
2023/07/03 09:46:48;;;;;;;4.63;1.80;;;22.70;55.00;;;;;;4954926;28;20035;-74
2023/07/03 09:49:22;;;;;;;3.33;1.80;;;22.80;54.90;;;;;;4953890;29;20065;-75
2023/07/03 09:51:51;;;;;;;2.95;1.63;;;22.80;54.90;;;;;;4954428;28;20035;-74
2023/07/03 09:54:21;;;;;;;3.67;1.52;;;22.90;54.80;;;;;;4958990;29;20039;-74
2023/07/03 09:56:49;;;;;;;3.80;1.50;;;22.90;54.80;;;;;;4958325;28;20531;-74
2023/07/03 09:59:17;;;;;;;2.70;1.33;;;22.90;54.70;;;;;;4958505;29;20125;-74
2023/07/03 10:01:43;;;;;;;2.72;1.63;;;22.90;54.70;;;;;;4957241;29;20040;-74
2023/07/03 10:04:14;;;;;;;4.65;1.52;;;22.90;54.60;;;;;;4941447;29;20027;-74
2023/07/03 10:06:57;;;;;;;3.67;1.67;;;23.00;54.70;;;;;;4957374;28;20032;-75
2023/07/03 10:09:28;;;;;;;3.42;1.55;;;23.00;54.70;;;;;;4941645;29;20050;-74
2023/07/03 10:12:09;;;;;;;3.72;1.83;;;23.00;54.60;;;;;;4957419;28;20456;-74
2023/07/03 10:14:57;;;;;;;3.97;1.70;;;23.00;54.60;;;;;;4958451;28;20035;-74
2023/07/03 10:17:34;;;;;;;3.40;1.38;;;23.00;54.50;;;;;;4958398;28;20031;-74
2023/07/03 10:20:04;;;;;;;2.25;1.30;;;23.10;54.50;;;;;;4941617;28;20089;-74
2023/07/03 10:22:31;;;;;;;3.53;1.50;;;23.10;54.40;;;;;;4957452;29;20050;-75
2023/07/03 10:25:04;;;;;;;3.28;1.40;;;23.10;54.40;;;;;;4958101;28;20515;-74
2023/07/03 10:27:32;;;;;;;2.53;1.40;;;23.10;54.40;;;;;;4958473;28;20035;-74
2023/07/03 10:30:00;;;;;;;2.83;1.40;;;23.10;54.30;;;;;;4956672;29;20043;-74
2023/07/03 10:32:31;;;;;;;4.15;1.70;;;23.10;54.30;;;;;;4956739;29;20098;-75
2023/07/03 10:35:23;;;;;;;2.83;1.40;;;23.10;54.30;;;;;;4941065;29;20050;-74
2023/07/03 10:38:17;;;;;;;3.53;1.40;;;23.10;54.30;;;;;;4957091;28;20086;-75
2023/07/03 10:40:53;;;;;;;3.40;1.17;;;23.20;54.30;;;;;;4956649;28;20027;-74
2023/07/03 10:43:21;;;;;;;2.70;1.38;;;23.20;54.30;;;;;;4956429;28;20054;-75
2023/07/03 10:45:47;;;;;;;3.22;1.35;;;23.20;54.30;;;;;;4940508;29;20448;-77
2023/07/03 10:48:16;;;;;;;4.15;2.17;;;23.10;54.20;;;;;;4956616;29;20039;-76
2023/07/03 10:51:03;;;;;;;2.83;1.50;;;23.10;54.20;;;;;;4940600;29;20028;-76
2023/07/03 10:53:55;;;;;;;2.53;1.30;;;23.20;54.30;;;;;;4956305;28;20031;-75
2023/07/03 10:56:43;;;;;;;2.67;1.38;;;23.20;54.80;;;;;;4956784;28;20468;-75
2023/07/03 10:59:21;;;;;;;2.70;1.13;;;23.20;54.10;;;;;;4956628;28;20023;-74
2023/07/03 11:02:09;;;;;;;3.78;1.38;;;23.20;54.10;;;;;;4956465;29;20035;-75
2023/07/03 11:04:49;;;;;;;4.38;1.67;;;23.20;54.10;;;;;;4955281;28;20086;-75
2023/07/03 11:07:34;;;;;;;3.50;1.50;;;23.20;54.10;;;;;;4956442;29;20058;-75
2023/07/03 11:10:36;;;;;;;2.72;1.25;;;23.20;54.00;;;;;;4926854;29;20039;-75
2023/07/03 11:13:07;;;;;;;2.65;1.20;;;23.20;54.00;;;;;;4957347;29;20042;-75
2023/07/03 11:16:05;;;;;;;3.13;1.45;;;23.20;53.90;;;;;;4957162;28;20600;-74
2023/07/03 11:18:48;;;;;;;3.10;1.40;;;23.20;54.00;;;;;;4957199;28;20059;-75
2023/07/03 11:21:41;;;;;;;3.75;1.45;;;23.30;54.00;;;;;;4956602;29;20356;-74
2023/07/03 11:24:25;;;;;;;1.60;1.10;;;23.20;53.90;;;;;;4940186;29;20438;-75
2023/07/03 11:27:06;;;;;;;3.25;1.38;;;23.20;53.90;;;;;;4957188;28;20047;-75
2023/07/03 11:29:34;;;;;;;3.17;1.40;;;23.30;53.90;;;;;;4956494;29;20444;-74
2023/07/03 11:32:02;;;;;;;2.85;1.30;;;23.30;53.90;;;;;;4955495;29;20119;-75
2023/07/03 11:34:28;;;;;;;2.97;1.23;;;23.30;53.80;;;;;;4955818;28;20062;-75
2023/07/03 11:36:54;;;;;;;3.40;1.30;;;23.30;53.80;;;;;;4956040;29;20472;-75
2023/07/03 11:39:28;;;;;;;2.03;1.38;;;23.30;53.80;;;;;;4955504;29;20456;-75
2023/07/03 11:42:00;;;;;;;2.22;1.42;;;23.40;53.80;;;;;;4957263;28;20035;-75
2023/07/03 11:44:30;;;;;;;2.85;1.38;;;23.30;53.70;;;;;;4955584;29;20054;-74
2023/07/03 11:47:28;;;;;;;2.85;1.20;;;23.40;53.70;;;;;;4956767;29;20024;-75
2023/07/03 11:49:59;;;;;;;2.50;1.02;;;23.40;53.70;;;;;;4954170;28;20047;-75
2023/07/03 11:52:29;;;;;;;2.63;1.45;;;23.40;53.60;;;;;;4956995;28;20050;-74
2023/07/03 11:55:01;;;;;;;2.28;1.27;;;23.50;53.60;;;;;;4956930;28;20039;-74
2023/07/03 11:57:34;;;;;;;2.33;1.27;;;23.50;53.60;;;;;;4955413;29;20542;-74
2023/07/03 12:00:22;;;;;;;2.20;1.10;;;23.50;53.50;;;;;;4955969;29;20066;-75
2023/07/03 12:02:48;;;;;;;2.55;1.48;;;23.50;53.40;;;;;;4956671;28;20043;-75
2023/07/03 12:05:51;;;;;;;2.03;1.00;;;23.50;53.40;;;;;;4956104;28;20035;-74
2023/07/03 12:08:18;;;;;;;2.10;1.17;;;23.60;53.40;;;;;;4955301;28;20047;-74
2023/07/03 12:10:57;;;;;;;2.47;1.35;;;23.60;53.30;;;;;;4955187;29;20353;-74
2023/07/03 12:13:41;;;;;;;1.95;1.23;;;23.60;53.30;;;;;;4955860;29;20341;-74
2023/07/03 12:16:20;;;;;;;3.37;1.33;;;23.60;53.20;;;;;;4954904;28;20126;-74
2023/07/03 12:18:56;;;;;;;4.13;1.35;;;23.70;53.30;;;;;;4955213;29;20317;-74
2023/07/03 12:21:22;;;;;;;3.20;1.38;;;23.70;53.20;;;;;;4956486;28;20035;-74
2023/07/03 12:23:48;;;;;;;2.90;1.60;;;23.70;53.10;;;;;;4955875;28;20094;-74
2023/07/03 12:26:16;;;;;;;3.22;1.30;;;23.70;53.10;;;;;;4955967;28;20039;-74
2023/07/03 12:28:42;;;;;;;2.38;1.20;;;23.70;53.10;;;;;;4954986;29;20070;-74
2023/07/03 12:31:19;;;;;;;2.95;1.40;;;23.70;53.10;;;;;;4939436;29;20082;-75
2023/07/03 12:33:54;;;;;;;2.45;1.23;;;23.80;53.20;;;;;;4955713;28;20027;-74
2023/07/03 12:36:31;;;;;;;2.60;1.30;;;23.80;53.20;;;;;;4938876;29;20038;-74
2023/07/03 12:38:58;;;;;;;3.05;1.15;;;23.80;53.20;;;;;;4939416;29;20027;-75
2023/07/03 12:41:30;;;;;;;2.63;1.30;;;23.80;53.20;;;;;;4956055;28;20027;-75
2023/07/03 12:44:01;;;;;;;3.97;1.30;;;23.80;53.30;;;;;;4956024;28;20051;-74
2023/07/03 12:46:32;;;;;;;2.15;1.17;;;23.90;53.30;;;;;;4956208;28;20122;-75
2023/07/03 12:49:20;;;;;;;2.40;1.30;;;23.90;53.30;;;;;;4938833;28;20047;-75
2023/07/03 12:51:54;;;;;;;3.22;1.35;;;23.90;53.20;;;;;;4955747;28;20031;-74
2023/07/03 12:54:23;;;;;;;1.65;1.00;;;23.90;53.10;;;;;;4954333;29;20041;-74
2023/07/03 12:56:51;;;;;;;1.92;1.10;;;23.90;53.10;;;;;;4954666;29;20499;-74
2023/07/03 12:59:21;;;;;;;2.42;1.20;;;23.90;53.00;;;;;;4954117;29;20035;-75
2023/07/03 13:01:50;;;;;;;3.05;1.27;;;23.90;53.00;;;;;;4938331;29;20480;-74